Terminal Aerodrome Forecast
Issued by NWS

Home | Current Version | Previous Version | Graphics & Text | Print | Product List | Glossary On
Versions: 1 2 3 4 5 6 7 8 9 10 11 12 13 14 15 16 17 18 19 20 21 22
000
FTUS43 KGRB 250538
TAFATW
TAF
KATW 250538Z 2506/2606 04013G20KT 5SM -RA OVC005
      TEMPO 2506/2510 P6SM -RA OVC007
     FM251000 04013G21KT P6SM -RA OVC009
     FM251400 05015G24KT P6SM BKN015 OVC030
     FM251900 05016G25KT P6SM BKN015 OVC080
     FM252200 04014G22KT P6SM SCT020 OVC050 PROB30 2522/2602 5SM -RA
      BR BKN020
     FM260200 04013G18KT 3SM -RA BR OVC006=

USA.gov is the U.S. government's official web portal to all federal, state and local government web resources and services.